createdAt,value
2023-04-16T00:01:26.480Z,9.09
2023-04-16T00:03:55.910Z,9.10
2023-04-16T00:06:24.558Z,9.05
2023-04-16T00:08:54.276Z,9.05
2023-04-16T00:11:23.639Z,9.06
2023-04-16T00:13:52.012Z,9.06
2023-04-16T00:16:20.625Z,9.05
2023-04-16T00:18:48.944Z,9.06
2023-04-16T00:21:17.267Z,9.06
2023-04-16T00:23:45.912Z,9.07
2023-04-16T00:26:16.095Z,9.06
2023-04-16T00:28:44.406Z,9.05
2023-04-16T00:31:12.800Z,9.04
2023-04-16T00:33:41.241Z,9.04
2023-04-16T00:36:10.687Z,9.05
2023-04-16T00:38:39.033Z,9.04
2023-04-16T00:41:07.374Z,9.05
2023-04-16T00:43:37.091Z,9.06
2023-04-16T00:46:07.753Z,9.06
2023-04-16T00:48:37.520Z,9.06
2023-04-16T00:51:06.722Z,9.06
2023-04-16T00:53:35.798Z,9.05
2023-04-16T00:56:05.215Z,9.04
2023-04-16T00:58:35.017Z,9.04
2023-04-16T01:01:04.916Z,9.03
2023-04-16T01:03:39.632Z,9.03
2023-04-16T01:06:08.616Z,9.03
2023-04-16T01:08:37.039Z,9.00
2023-04-16T01:11:05.642Z,9.01
2023-04-16T01:13:34.522Z,9.03
2023-04-16T01:16:04.563Z,9.01
2023-04-16T01:18:32.942Z,9.04
2023-04-16T01:21:02.876Z,9.02
2023-04-16T01:23:31.470Z,9.03
2023-04-16T01:25:59.976Z,9.04
2023-04-16T01:28:28.388Z,9.03
2023-04-16T01:30:56.787Z,9.04
2023-04-16T01:33:25.230Z,9.04
2023-04-16T01:35:53.610Z,9.03
2023-04-16T01:38:23.427Z,9.02
2023-04-16T01:40:51.794Z,9.03
2023-04-16T01:43:20.281Z,9.00
2023-04-16T01:45:48.614Z,9.01
2023-04-16T01:48:17.110Z,8.99
2023-04-16T01:50:45.554Z,8.99
2023-04-16T01:53:13.857Z,9.00
2023-04-16T01:55:43.569Z,8.99
2023-04-16T01:58:14.719Z,8.98
2023-04-16T02:00:43.073Z,8.97
2023-04-16T02:03:11.811Z,8.98
2023-04-16T02:05:40.275Z,8.97
2023-04-16T02:08:08.615Z,8.98
2023-04-16T02:10:37.008Z,8.97
2023-04-16T02:13:06.731Z,8.97
2023-04-16T02:15:35.235Z,8.97
2023-04-16T02:18:03.606Z,8.98
2023-04-16T02:20:31.946Z,8.98
2023-04-16T02:23:00.490Z,8.96
2023-04-16T02:25:28.989Z,8.96
2023-04-16T02:27:57.327Z,8.94
2023-04-16T02:30:27.167Z,8.95
2023-04-16T02:32:55.517Z,8.92
2023-04-16T02:35:23.901Z,8.92
2023-04-16T02:37:52.269Z,8.91
2023-04-16T02:40:21.021Z,8.89
2023-04-16T02:42:49.369Z,8.92
2023-04-16T02:45:17.802Z,8.88
2023-04-16T02:47:47.520Z,8.84
2023-04-16T02:50:16.037Z,8.83
2023-04-16T02:52:44.450Z,8.83
2023-04-16T02:55:13.307Z,8.82
2023-04-16T02:57:42.452Z,8.77
2023-04-16T03:00:11.742Z,8.77
2023-04-16T03:02:40.741Z,8.73
2023-04-16T03:05:11.776Z,8.72
2023-04-16T03:07:40.837Z,8.74
2023-04-16T03:10:10.059Z,8.71
2023-04-16T03:12:39.175Z,8.71
2023-04-16T03:15:08.427Z,8.69
2023-04-16T03:17:37.002Z,8.68
2023-04-16T03:20:06.525Z,8.66
2023-04-16T03:22:36.485Z,8.66
2023-04-16T03:25:05.284Z,8.64
2023-04-16T03:27:33.951Z,8.64
2023-04-16T03:30:02.563Z,8.61
2023-04-16T03:32:30.926Z,8.58
2023-04-16T03:34:59.314Z,8.57
2023-04-16T03:37:27.676Z,8.56
2023-04-16T03:39:57.397Z,8.53
2023-04-16T03:42:25.932Z,8.56
2023-04-16T03:44:54.626Z,8.54
2023-04-16T03:47:23.090Z,8.53
2023-04-16T03:49:51.822Z,8.51
2023-04-16T03:52:20.169Z,8.48
2023-04-16T03:54:48.505Z,8.45
2023-04-16T03:57:18.254Z,8.40
2023-04-16T03:59:47.039Z,8.40
2023-04-16T04:02:15.477Z,8.39
2023-04-16T04:04:44.062Z,8.40
2023-04-16T04:07:12.496Z,8.40
2023-04-16T04:09:40.855Z,8.40
2023-04-16T04:12:09.986Z,8.39
2023-04-16T04:14:40.104Z,8.39
2023-04-16T04:17:09.396Z,8.38
2023-04-16T04:19:40.280Z,8.37
2023-04-16T04:22:10.946Z,8.38
2023-04-16T04:24:39.287Z,8.38
2023-04-16T04:27:07.601Z,8.36
2023-04-16T04:29:36.016Z,8.35
2023-04-16T04:32:06.290Z,8.33
2023-04-16T04:34:34.636Z,8.36
2023-04-16T04:37:02.994Z,8.35
2023-04-16T04:39:31.759Z,8.34
2023-04-16T04:42:00.191Z,8.35
2023-04-16T04:44:28.509Z,8.36
2023-04-16T04:46:56.815Z,8.36
2023-04-16T04:49:26.569Z,8.34
2023-04-16T04:51:54.903Z,8.34
2023-04-16T04:54:23.293Z,8.33
2023-04-16T04:56:52.539Z,8.34
2023-04-16T04:59:21.611Z,8.32
2023-04-16T05:01:50.386Z,8.32
2023-04-16T05:04:19.321Z,8.30
2023-04-16T05:06:49.334Z,8.31
2023-04-16T05:09:17.742Z,8.32
2023-04-16T05:11:46.254Z,8.32
2023-04-16T05:14:14.686Z,8.31
2023-04-16T05:16:43.082Z,8.30
2023-04-16T05:19:11.620Z,8.29
2023-04-16T05:21:40.277Z,8.30
2023-04-16T05:24:10.013Z,8.30
2023-04-16T05:26:38.371Z,8.26
2023-04-16T05:29:06.774Z,8.26
2023-04-16T05:31:35.311Z,8.27
2023-04-16T05:34:03.622Z,8.26
2023-04-16T05:36:31.952Z,8.24
2023-04-16T05:39:00.308Z,8.22
2023-04-16T05:41:30.028Z,8.22
2023-04-16T05:43:58.425Z,8.21
2023-04-16T05:46:26.903Z,8.22
2023-04-16T05:48:55.697Z,8.21
2023-04-16T05:51:26.061Z,8.22
2023-04-16T05:53:54.394Z,8.23
2023-04-16T05:56:23.392Z,8.23
2023-04-16T05:58:53.086Z,8.25
2023-04-16T06:01:22.270Z,8.23
2023-04-16T06:03:50.991Z,8.26
2023-04-16T06:06:19.406Z,8.24
2023-04-16T06:08:47.824Z,8.24
2023-04-16T06:11:16.243Z,8.24
2023-04-16T06:13:44.610Z,8.24
2023-04-16T06:16:14.563Z,8.20
2023-04-16T06:18:42.906Z,8.23
2023-04-16T06:21:11.353Z,8.24
2023-04-16T06:23:39.852Z,8.28
2023-04-16T06:26:08.196Z,8.29
2023-04-16T06:28:36.525Z,8.31
2023-04-16T06:31:05.722Z,8.32
2023-04-16T06:33:35.493Z,8.30
2023-04-16T06:36:03.832Z,8.31
2023-04-16T06:38:32.165Z,8.35
2023-04-16T06:41:00.707Z,8.36
2023-04-16T06:43:29.868Z,8.42
2023-04-16T06:45:58.206Z,8.42
2023-04-16T06:48:26.602Z,8.43
2023-04-16T06:50:56.690Z,8.45
2023-04-16T06:53:25.328Z,8.46
2023-04-16T06:55:53.700Z,8.45
2023-04-16T06:58:22.370Z,8.46
2023-04-16T07:00:50.901Z,8.46
2023-04-16T07:03:19.572Z,8.49
2023-04-16T07:05:48.079Z,8.47
2023-04-16T07:08:17.900Z,8.49
2023-04-16T07:10:46.222Z,8.50
2023-04-16T07:13:14.986Z,8.50
2023-04-16T07:15:43.422Z,8.53
2023-04-16T07:18:11.817Z,8.55
2023-04-16T07:20:40.212Z,8.56
2023-04-16T07:23:08.677Z,8.55
2023-04-16T07:25:38.568Z,8.53
2023-04-16T07:28:06.961Z,8.52
2023-04-16T07:30:35.837Z,8.53
2023-04-16T07:33:04.808Z,8.50
2023-04-16T07:35:33.592Z,8.52
2023-04-16T07:38:02.031Z,8.54
2023-04-16T07:40:30.755Z,8.57
2023-04-16T07:43:00.553Z,8.59
2023-04-16T07:45:28.923Z,8.59
2023-04-16T07:47:57.668Z,8.59
2023-04-16T07:50:26.235Z,8.59
2023-04-16T07:52:54.704Z,8.61
2023-04-16T07:55:23.335Z,8.64
2023-04-16T07:57:52.276Z,8.62
2023-04-16T08:00:22.196Z,8.65
2023-04-16T08:02:51.221Z,8.59
2023-04-16T08:05:19.723Z,8.64
2023-04-16T08:07:48.180Z,8.60
2023-04-16T08:10:16.746Z,8.62
2023-04-16T08:12:45.195Z,8.60
2023-04-16T08:15:13.673Z,8.59
2023-04-16T08:17:43.426Z,8.57
2023-04-16T08:20:15.758Z,8.57
2023-04-16T08:22:46.232Z,8.57
2023-04-16T08:25:15.002Z,8.57
2023-04-16T08:27:43.338Z,8.59
2023-04-16T08:30:12.372Z,8.59
2023-04-16T08:32:40.881Z,8.64
2023-04-16T08:35:11.115Z,8.63
2023-04-16T08:37:39.773Z,8.60
2023-04-16T08:40:09.596Z,8.58
2023-04-16T08:42:45.665Z,8.61
2023-04-16T08:45:16.067Z,8.61
2023-04-16T08:47:47.932Z,8.60
2023-04-16T08:50:23.442Z,8.63
2023-04-16T08:52:53.933Z,8.64
2023-04-16T08:55:27.329Z,8.68
2023-04-16T08:57:59.652Z,8.69
2023-04-16T09:00:29.526Z,8.68
2023-04-16T09:02:58.131Z,8.72
2023-04-16T09:05:30.348Z,8.69
2023-04-16T09:07:58.744Z,8.69
2023-04-16T09:10:28.166Z,8.67
2023-04-16T09:12:57.333Z,8.65
2023-04-16T09:15:26.584Z,8.64
2023-04-16T09:17:56.546Z,8.65
2023-04-16T09:20:25.327Z,8.70
2023-04-16T09:22:57.004Z,8.72
2023-04-16T09:25:26.320Z,8.77
2023-04-16T09:27:54.706Z,8.82
2023-04-16T09:30:24.888Z,8.86
2023-04-16T09:33:02.151Z,8.86
2023-04-16T09:35:46.743Z,8.91
2023-04-16T09:38:17.119Z,8.96
2023-04-16T09:40:47.683Z,8.97
2023-04-16T09:43:17.983Z,9.02
2023-04-16T09:45:51.050Z,9.02
2023-04-16T09:48:29.997Z,9.03
2023-04-16T09:50:59.294Z,9.07
2023-04-16T09:53:30.307Z,9.02
2023-04-16T09:55:59.232Z,9.02
2023-04-16T09:58:28.591Z,9.03
2023-04-16T10:00:57.660Z,9.06
2023-04-16T10:03:32.961Z,9.08
2023-04-16T10:06:03.055Z,9.09
2023-04-16T10:08:32.816Z,9.14
2023-04-16T10:11:01.742Z,9.22
2023-04-16T10:13:31.244Z,9.20
2023-04-16T10:16:00.154Z,9.25
2023-04-16T10:18:29.991Z,9.27
2023-04-16T10:20:59.873Z,9.23
2023-04-16T10:23:28.611Z,9.29
2023-04-16T10:25:59.833Z,9.30
2023-04-16T10:28:29.456Z,9.28
2023-04-16T10:30:59.341Z,9.31
2023-04-16T10:33:30.421Z,9.32
2023-04-16T10:36:12.976Z,9.33
2023-04-16T10:38:42.837Z,9.39
2023-04-16T10:41:12.691Z,9.44
2023-04-16T10:43:42.432Z,9.44
2023-04-16T10:46:22.112Z,9.47
2023-04-16T10:48:51.712Z,9.50
2023-04-16T10:51:28.854Z,9.54
2023-04-16T10:53:58.290Z,9.52
2023-04-16T10:56:29.092Z,9.57
2023-04-16T10:58:57.479Z,9.56
2023-04-16T11:01:36.535Z,9.59
2023-04-16T11:04:30.606Z,9.57
2023-04-16T11:07:05.520Z,9.57
2023-04-16T11:09:54.729Z,9.61
2023-04-16T11:12:27.263Z,9.64
2023-04-16T11:14:59.158Z,9.68
2023-04-16T11:17:30.777Z,9.71
2023-04-16T11:19:59.322Z,9.77
2023-04-16T11:22:28.381Z,9.84
2023-04-16T11:24:57.571Z,9.91
2023-04-16T11:27:27.457Z,9.98
2023-04-16T11:30:00.293Z,10.07
2023-04-16T11:32:28.797Z,10.10
2023-04-16T11:34:57.166Z,10.09
2023-04-16T11:37:34.288Z,10.07
2023-04-16T11:40:04.828Z,10.06
2023-04-16T11:42:37.227Z,10.08
2023-04-16T11:45:06.373Z,10.06
2023-04-16T11:47:46.866Z,10.04
2023-04-16T11:50:20.128Z,10.04
2023-04-16T11:52:49.263Z,10.04
2023-04-16T11:55:18.178Z,10.06
2023-04-16T11:57:48.549Z,10.10
2023-04-16T12:00:17.498Z,10.11
2023-04-16T12:02:47.402Z,10.13
2023-04-16T12:05:30.771Z,10.16
2023-04-16T12:08:00.993Z,10.18
2023-04-16T12:10:30.308Z,10.24
2023-04-16T12:13:13.631Z,10.25
2023-04-16T12:15:46.780Z,10.25
2023-04-16T12:18:16.272Z,10.20
2023-04-16T12:20:45.587Z,10.14
2023-04-16T12:23:24.691Z,10.11
2023-04-16T12:25:53.374Z,10.07
2023-04-16T12:28:31.926Z,10.04
2023-04-16T12:31:01.091Z,10.05
2023-04-16T12:33:30.236Z,10.01
2023-04-16T12:35:58.717Z,10.01
2023-04-16T12:38:27.640Z,9.98
2023-04-16T12:40:57.839Z,9.97
2023-04-16T12:43:26.569Z,9.91
2023-04-16T12:45:56.582Z,9.90
2023-04-16T12:48:25.023Z,9.85
2023-04-16T12:50:55.301Z,9.85
2023-04-16T12:53:23.962Z,9.81
2023-04-16T12:55:52.659Z,9.78
2023-04-16T12:58:21.026Z,9.76
2023-04-16T13:00:49.502Z,9.72
2023-04-16T13:03:20.982Z,9.68
2023-04-16T13:05:49.770Z,9.65
2023-04-16T13:08:18.274Z,9.64
2023-04-16T13:10:46.677Z,9.61
2023-04-16T13:13:16.445Z,9.50
2023-04-16T13:15:44.922Z,9.46
2023-04-16T13:18:13.517Z,9.40
2023-04-16T13:20:43.809Z,9.41
2023-04-16T13:23:12.410Z,9.37
2023-04-16T13:25:40.912Z,9.36
2023-04-16T13:28:09.366Z,9.37
2023-04-16T13:30:38.121Z,9.41
2023-04-16T13:33:06.623Z,9.44
2023-04-16T13:35:35.135Z,9.49
2023-04-16T13:38:05.975Z,9.51
2023-04-16T13:40:34.683Z,9.54
2023-04-16T13:43:03.537Z,9.57
2023-04-16T13:45:32.577Z,9.59
2023-04-16T13:48:01.372Z,9.63
2023-04-16T13:50:29.984Z,9.69
2023-04-16T13:52:58.377Z,9.71
2023-04-16T13:55:28.137Z,9.73
2023-04-16T13:57:57.056Z,9.76
2023-04-16T14:00:27.250Z,9.81
2023-04-16T14:02:55.894Z,9.86
2023-04-16T14:05:26.608Z,9.91
2023-04-16T14:07:55.659Z,10.00
2023-04-16T14:10:24.034Z,10.06
2023-04-16T14:12:53.807Z,10.09
2023-04-16T14:15:22.201Z,10.17
2023-04-16T14:17:50.876Z,10.18
2023-04-16T14:20:19.264Z,10.21
2023-04-16T14:22:47.735Z,10.25
2023-04-16T14:25:16.165Z,10.27
2023-04-16T14:27:44.547Z,10.29
2023-04-16T14:30:14.752Z,10.24
2023-04-16T14:32:43.329Z,10.23
2023-04-16T14:35:11.802Z,10.25
2023-04-16T14:37:40.816Z,10.23
2023-04-16T14:40:10.866Z,10.23
2023-04-16T14:42:41.965Z,10.23
2023-04-16T14:45:11.033Z,10.18
2023-04-16T14:47:46.217Z,10.13
2023-04-16T14:50:20.991Z,10.11
2023-04-16T14:52:53.786Z,10.05
2023-04-16T14:55:27.717Z,10.02
2023-04-16T14:57:59.740Z,9.97
2023-04-16T15:00:28.616Z,9.89
2023-04-16T15:02:59.463Z,9.81
2023-04-16T15:05:27.905Z,9.73
2023-04-16T15:07:56.291Z,9.67
2023-04-16T15:10:24.779Z,9.62
2023-04-16T15:12:53.188Z,9.58
2023-04-16T15:15:21.579Z,9.51
2023-04-16T15:17:51.026Z,9.45
2023-04-16T15:20:21.088Z,9.40
2023-04-16T15:22:49.448Z,9.36
2023-04-16T15:25:18.002Z,9.31
2023-04-16T15:27:46.339Z,9.31
2023-04-16T15:30:15.695Z,9.31
2023-04-16T15:32:45.061Z,9.30
2023-04-16T15:35:15.544Z,9.28
2023-04-16T15:37:45.412Z,9.30
2023-04-16T15:40:15.902Z,9.31
2023-04-16T15:42:44.646Z,9.30
2023-04-16T15:45:13.124Z,9.30
2023-04-16T15:47:42.014Z,9.30
2023-04-16T15:50:11.000Z,9.31
2023-04-16T15:52:42.490Z,9.32
2023-04-16T15:55:12.398Z,9.34
2023-04-16T15:57:41.132Z,9.34
2023-04-16T16:00:14.174Z,9.34
2023-04-16T16:02:44.116Z,9.34
2023-04-16T16:05:14.244Z,9.35
2023-04-16T16:07:43.256Z,9.36
2023-04-16T16:10:16.025Z,9.36
2023-04-16T16:12:46.444Z,9.39
2023-04-16T16:15:14.955Z,9.36
2023-04-16T16:17:43.602Z,9.34
2023-04-16T16:20:12.887Z,9.35
2023-04-16T16:22:43.124Z,9.33
2023-04-16T16:25:12.929Z,9.33
2023-04-16T16:27:42.106Z,9.31
2023-04-16T16:30:11.548Z,9.28
2023-04-16T16:32:43.026Z,9.26
2023-04-16T16:35:13.992Z,9.25
2023-04-16T16:37:42.433Z,9.24
2023-04-16T16:40:11.690Z,9.25
2023-04-16T16:42:56.276Z,9.24
2023-04-16T16:45:34.919Z,9.23
2023-04-16T16:48:04.321Z,9.22
2023-04-16T16:50:33.254Z,9.21
2023-04-16T16:53:01.950Z,9.18
2023-04-16T16:55:30.346Z,9.21
2023-04-16T16:58:00.261Z,9.18
2023-04-16T17:00:28.712Z,9.16
2023-04-16T17:02:57.621Z,9.10
2023-04-16T17:05:26.246Z,9.11
2023-04-16T17:07:54.729Z,9.09
2023-04-16T17:10:23.761Z,9.05
2023-04-16T17:12:56.724Z,9.02
2023-04-16T17:15:26.922Z,8.99
2023-04-16T17:17:55.277Z,8.96
2023-04-16T17:20:24.124Z,8.88
2023-04-16T17:22:52.694Z,8.83
2023-04-16T17:25:21.330Z,8.82
2023-04-16T17:27:51.542Z,8.79
2023-04-16T17:30:20.194Z,8.78
2023-04-16T17:32:50.681Z,8.73
2023-04-16T17:35:19.106Z,8.74
2023-04-16T17:37:47.502Z,8.73
2023-04-16T17:40:18.196Z,8.71
2023-04-16T17:42:47.152Z,8.69
2023-04-16T17:45:15.716Z,8.66
2023-04-16T17:47:44.592Z,8.66
2023-04-16T17:50:14.636Z,8.64
2023-04-16T17:52:47.330Z,8.64
2023-04-16T17:55:16.652Z,8.61
2023-04-16T17:57:45.766Z,8.59
2023-04-16T18:00:16.152Z,8.57
2023-04-16T18:02:45.479Z,8.58
2023-04-16T18:05:15.498Z,8.59
2023-04-16T18:07:48.285Z,8.59
2023-04-16T18:10:16.714Z,8.55
2023-04-16T18:12:45.114Z,8.56
2023-04-16T18:15:13.465Z,8.53
2023-04-16T18:17:44.316Z,8.51
2023-04-16T18:20:16.738Z,8.54
2023-04-16T18:22:46.556Z,8.54
2023-04-16T18:25:16.085Z,8.52
2023-04-16T18:27:44.811Z,8.55
2023-04-16T18:30:20.164Z,8.53
2023-04-16T18:33:09.957Z,8.50
2023-04-16T18:35:42.314Z,8.46
2023-04-16T18:38:14.597Z,8.46
2023-04-16T18:40:43.108Z,8.44
2023-04-16T18:43:11.506Z,8.44
2023-04-16T18:45:40.034Z,8.40
2023-04-16T18:48:08.626Z,8.38
2023-04-16T18:50:36.996Z,8.38
2023-04-16T18:53:05.360Z,8.37
2023-04-16T18:55:35.305Z,8.35
2023-04-16T18:58:07.952Z,8.33
2023-04-16T19:00:36.408Z,8.32
2023-04-16T19:03:15.133Z,8.30
2023-04-16T19:05:43.765Z,8.30
2023-04-16T19:08:12.293Z,8.29
2023-04-16T19:10:42.044Z,8.28
2023-04-16T19:13:10.540Z,8.28
2023-04-16T19:15:38.942Z,8.30
2023-04-16T19:18:10.210Z,8.28
2023-04-16T19:20:39.630Z,8.29
2023-04-16T19:23:19.552Z,8.27
2023-04-16T19:26:04.135Z,8.29
2023-04-16T19:29:38.628Z,8.17
2023-04-16T19:32:25.542Z,8.24
2023-04-16T19:34:55.241Z,8.24
2023-04-16T19:37:27.270Z,8.23
2023-04-16T19:40:47.517Z,8.22
2023-04-16T19:44:00.716Z,8.17
2023-04-16T19:46:52.278Z,8.19
2023-04-16T19:49:20.631Z,8.15
2023-04-16T19:51:49.547Z,8.15
2023-04-16T19:54:17.907Z,8.10
2023-04-16T19:56:46.238Z,8.09
2023-04-16T19:59:15.990Z,8.07
2023-04-16T20:01:44.675Z,8.10
2023-04-16T20:04:16.506Z,8.05
2023-04-16T20:06:44.851Z,8.06
2023-04-16T20:09:13.422Z,8.07
2023-04-16T20:11:41.871Z,8.01
2023-04-16T20:14:10.653Z,7.97
2023-04-16T20:16:40.919Z,7.91
2023-04-16T20:19:09.536Z,7.88
2023-04-16T20:21:37.979Z,7.86
2023-04-16T20:24:10.609Z,7.83
2023-04-16T20:26:38.986Z,7.81
2023-04-16T20:29:07.344Z,7.82
2023-04-16T20:31:38.323Z,7.81
2023-04-16T20:34:23.915Z,7.82
2023-04-16T20:36:52.693Z,7.78
2023-04-16T20:39:22.428Z,7.80
2023-04-16T20:41:57.042Z,7.77
2023-04-16T20:44:26.444Z,7.76
2023-04-16T20:46:56.988Z,7.76
2023-04-16T20:49:26.869Z,7.74
2023-04-16T20:51:55.431Z,7.71
2023-04-16T20:54:24.770Z,7.67
2023-04-16T20:56:53.266Z,7.67
2023-04-16T20:59:21.591Z,7.65
2023-04-16T21:01:50.133Z,7.64
2023-04-16T21:04:18.846Z,7.63
2023-04-16T21:06:49.152Z,7.59
2023-04-16T21:09:17.526Z,7.59
2023-04-16T21:11:46.070Z,7.59
2023-04-16T21:14:14.473Z,7.56
2023-04-16T21:16:42.815Z,7.54
2023-04-16T21:19:11.592Z,7.53
2023-04-16T21:21:41.757Z,7.51
2023-04-16T21:24:11.582Z,7.47
2023-04-16T21:26:40.114Z,7.45
2023-04-16T21:29:08.425Z,7.44
2023-04-16T21:31:36.875Z,7.42
2023-04-16T21:34:05.386Z,7.41
2023-04-16T21:36:34.106Z,7.38
2023-04-16T21:39:02.651Z,7.37
2023-04-16T21:41:32.385Z,7.34
2023-04-16T21:44:00.989Z,7.31
2023-04-16T21:46:29.358Z,7.31
2023-04-16T21:48:57.890Z,7.27
2023-04-16T21:51:29.852Z,7.26
2023-04-16T21:53:58.849Z,7.25
2023-04-16T21:56:27.319Z,7.18
2023-04-16T21:58:56.987Z,7.16
2023-04-16T22:01:25.587Z,7.14
2023-04-16T22:03:54.348Z,7.12
2023-04-16T22:06:23.265Z,7.10
2023-04-16T22:08:51.599Z,7.11
2023-04-16T22:11:20.131Z,7.09
2023-04-16T22:13:49.419Z,7.09
2023-04-16T22:16:19.245Z,7.05
2023-04-16T22:18:47.915Z,7.03
2023-04-16T22:21:16.258Z,7.01
2023-04-16T22:23:46.351Z,7.01
2023-04-16T22:26:14.856Z,6.99
2023-04-16T22:28:43.279Z,6.99
2023-04-16T22:31:11.642Z,6.96
2023-04-16T22:33:41.537Z,6.97
2023-04-16T22:36:10.351Z,6.94
2023-04-16T22:38:38.929Z,6.91
2023-04-16T22:41:07.351Z,6.88
2023-04-16T22:43:37.105Z,6.87
2023-04-16T22:46:07.938Z,6.83
2023-04-16T22:48:38.747Z,6.85
2023-04-16T22:51:09.541Z,6.82
2023-04-16T22:53:38.167Z,6.81
2023-04-16T22:56:07.217Z,6.79
2023-04-16T22:58:35.598Z,6.82
2023-04-16T23:01:03.976Z,6.82
2023-04-16T23:03:32.652Z,6.77
2023-04-16T23:06:01.057Z,6.79
2023-04-16T23:08:30.895Z,6.76
2023-04-16T23:10:59.244Z,6.76
2023-04-16T23:13:27.600Z,6.75
2023-04-16T23:15:56.038Z,6.74
2023-04-16T23:18:24.528Z,6.74
2023-04-16T23:20:53.231Z,6.72
2023-04-16T23:23:21.598Z,6.74
2023-04-16T23:25:53.191Z,6.71
2023-04-16T23:28:21.993Z,6.74
2023-04-16T23:30:52.554Z,6.73
2023-04-16T23:33:20.894Z,6.73
2023-04-16T23:35:49.281Z,6.74
2023-04-16T23:38:17.602Z,6.76
2023-04-16T23:40:45.945Z,6.77
2023-04-16T23:43:15.758Z,6.76
2023-04-16T23:45:44.179Z,6.72
2023-04-16T23:48:12.556Z,6.75
2023-04-16T23:50:41.053Z,6.71
2023-04-16T23:53:09.411Z,6.74
2023-04-16T23:55:37.884Z,6.72
2023-04-16T23:58:06.229Z,6.73
